BCS5959 EDDP-EYVI
Flight info
| Callsign | BCS5959 |
|---|---|
| Flight time | 1h 13m |
| Altitude | 33000 |
| Route | PENEM1Q PENEM Y236 RUDAK T278 KLF DCT SUBIX N858 BOKSU DCT KAZLA DCT IRKAL |
| Aircraft | B738/M-SDFGHIRWY/LB1 |
Departure
| Time | 2026-05-05 21:35 |
|---|---|
| Airport | Leipzig/Halle Airport (EDDP) |
Arrival
| Time | 2026-05-05 22:48 |
|---|---|
| Airport | Vilnius International Airport (EYVI) |
| Time | Latitude | Longitude | Altitude | Speed | Heading |
|---|---|---|---|---|---|
| 2026-05-05 20:38 | 51.40764 | 12.23561 | 463 ft | 0 kts | 266° |
| 2026-05-05 21:22 | 51.40765 | 12.23566 | 463 ft | 3 kts | 266° |
| 2026-05-05 21:23 | 51.40765 | 12.23608 | 463 ft | 4 kts | 274° |
| 2026-05-05 21:23 | 51.40761 | 12.23650 | 462 ft | 4 kts | 291° |
| 2026-05-05 21:23 | 51.40747 | 12.23681 | 458 ft | 4 kts | 341° |
| 2026-05-05 21:23 | 51.40741 | 12.23684 | 462 ft | 1 kts | 356° |
| 2026-05-05 21:28 | 51.40743 | 12.23684 | 459 ft | 2 kts | 356° |
| 2026-05-05 21:28 | 51.40772 | 12.23680 | 461 ft | 6 kts | 355° |
| 2026-05-05 21:28 | 51.40821 | 12.23673 | 464 ft | 8 kts | 355° |
| 2026-05-05 21:29 | 51.40864 | 12.23667 | 465 ft | 10 kts | 356° |
| 2026-05-05 21:29 | 51.40942 | 12.23659 | 465 ft | 12 kts | 356° |
| 2026-05-05 21:29 | 51.41022 | 12.23646 | 469 ft | 11 kts | 348° |
| 2026-05-05 21:29 | 51.41046 | 12.23507 | 470 ft | 11 kts | 260° |
| 2026-05-05 21:30 | 51.41039 | 12.23386 | 470 ft | 11 kts | 264° |
| 2026-05-05 21:30 | 51.41033 | 12.23268 | 470 ft | 11 kts | 266° |
| 2026-05-05 21:30 | 51.41029 | 12.23188 | 468 ft | 11 kts | 265° |
| 2026-05-05 21:30 | 51.41024 | 12.23065 | 469 ft | 12 kts | 266° |
| 2026-05-05 21:31 | 51.41017 | 12.22912 | 466 ft | 15 kts | 265° |
| 2026-05-05 21:31 | 51.41009 | 12.22747 | 466 ft | 15 kts | 264° |
| 2026-05-05 21:31 | 51.40999 | 12.22578 | 463 ft | 16 kts | 266° |
| 2026-05-05 21:31 | 51.40991 | 12.22398 | 460 ft | 16 kts | 273° |
| 2026-05-05 21:32 | 51.41064 | 12.22286 | 459 ft | 15 kts | 319° |
| 2026-05-05 21:32 | 51.41070 | 12.22127 | 458 ft | 15 kts | 264° |
| 2026-05-05 21:32 | 51.41059 | 12.21968 | 456 ft | 14 kts | 265° |
| 2026-05-05 21:32 | 51.41051 | 12.21816 | 459 ft | 13 kts | 268° |
| 2026-05-05 21:33 | 51.41064 | 12.21675 | 457 ft | 13 kts | 307° |
| 2026-05-05 21:33 | 51.41143 | 12.21659 | 455 ft | 13 kts | 33° |
| 2026-05-05 21:33 | 51.41180 | 12.21776 | 453 ft | 12 kts | 65° |
| 2026-05-05 21:33 | 51.41223 | 12.21839 | 455 ft | 5 kts | 52° |
| 2026-05-05 21:34 | 51.41228 | 12.21894 | 455 ft | 5 kts | 86° |
| 2026-05-05 21:34 | 51.41234 | 12.22009 | 456 ft | 31 kts | 85° |
| 2026-05-05 21:34 | 51.41269 | 12.22751 | 464 ft | 102 kts | 86° |
| 2026-05-05 21:34 | 51.41336 | 12.24231 | 490 ft | 161 kts | 86° |
| 2026-05-05 21:35 | 51.41410 | 12.26063 | 1287 ft | 157 kts | 86° |
| 2026-05-05 21:35 | 51.41456 | 12.27729 | 2413 ft | 147 kts | 86° |
| 2026-05-05 21:35 | 51.41551 | 12.29528 | 2778 ft | 184 kts | 85° |
| 2026-05-05 21:35 | 51.41690 | 12.31718 | 3107 ft | 205 kts | 83° |
| 2026-05-05 21:36 | 51.41915 | 12.33906 | 4044 ft | 192 kts | 74° |
| 2026-05-05 21:36 | 51.42573 | 12.35867 | 4391 ft | 221 kts | 53° |
| 2026-05-05 21:36 | 51.43865 | 12.37735 | 4245 ft | 271 kts | 35° |
| 2026-05-05 21:36 | 51.45535 | 12.39017 | 5416 ft | 260 kts | 20° |
| 2026-05-05 21:37 | 51.47158 | 12.40276 | 6289 ft | 264 kts | 36° |
| 2026-05-05 21:37 | 51.48863 | 12.41544 | 6624 ft | 278 kts | 9° |
| 2026-05-05 21:37 | 51.50796 | 12.41138 | 7167 ft | 288 kts | 342° |
| 2026-05-05 21:37 | 51.52690 | 12.40104 | 8083 ft | 288 kts | 345° |
| 2026-05-05 21:38 | 51.54678 | 12.39852 | 8891 ft | 289 kts | 11° |
| 2026-05-05 21:38 | 51.56556 | 12.40957 | 9701 ft | 290 kts | 31° |
| 2026-05-05 21:38 | 51.58305 | 12.42637 | 10263 ft | 301 kts | 33° |
| 2026-05-05 21:38 | 51.60153 | 12.44522 | 10435 ft | 326 kts | 34° |
| 2026-05-05 21:39 | 51.62093 | 12.46526 | 10921 ft | 338 kts | 34° |
| 2026-05-05 21:39 | 51.64077 | 12.48585 | 11558 ft | 344 kts | 34° |
| 2026-05-05 21:39 | 51.66090 | 12.50683 | 12271 ft | 348 kts | 34° |
| 2026-05-05 21:39 | 51.68141 | 12.52826 | 12947 ft | 353 kts | 34° |
| 2026-05-05 21:40 | 51.70219 | 12.55003 | 13583 ft | 359 kts | 34° |
| 2026-05-05 21:40 | 51.72327 | 12.57212 | 14213 ft | 364 kts | 34° |
| 2026-05-05 21:40 | 51.74433 | 12.59421 | 14850 ft | 368 kts | 34° |
| 2026-05-05 21:40 | 51.76591 | 12.61688 | 15489 ft | 372 kts | 34° |
| 2026-05-05 21:41 | 51.78767 | 12.63980 | 16115 ft | 376 kts | 34° |
| 2026-05-05 21:41 | 51.80970 | 12.66307 | 16715 ft | 381 kts | 34° |
| 2026-05-05 21:41 | 51.83088 | 12.68884 | 17293 ft | 383 kts | 49° |
| 2026-05-05 21:41 | 51.84681 | 12.72325 | 17958 ft | 383 kts | 58° |
| 2026-05-05 21:42 | 51.86045 | 12.76035 | 18512 ft | 385 kts | 63° |
| 2026-05-05 21:42 | 51.87307 | 12.79883 | 19031 ft | 389 kts | 65° |
| 2026-05-05 21:42 | 51.88539 | 12.83804 | 19560 ft | 393 kts | 65° |
| 2026-05-05 21:42 | 51.89772 | 12.87770 | 20079 ft | 396 kts | 65° |
| 2026-05-05 21:43 | 51.91019 | 12.91776 | 20599 ft | 400 kts | 65° |
| 2026-05-05 21:43 | 51.92281 | 12.95807 | 21117 ft | 404 kts | 65° |
| 2026-05-05 21:43 | 51.93562 | 12.99881 | 21626 ft | 407 kts | 65° |
| 2026-05-05 21:43 | 51.94857 | 13.03986 | 22114 ft | 411 kts | 64° |
| 2026-05-05 21:44 | 51.96166 | 13.08126 | 22608 ft | 414 kts | 64° |
| 2026-05-05 21:44 | 51.97485 | 13.12300 | 23112 ft | 418 kts | 64° |
| 2026-05-05 21:44 | 51.98813 | 13.16504 | 23546 ft | 421 kts | 64° |
| 2026-05-05 21:44 | 52.00153 | 13.20753 | 23945 ft | 424 kts | 64° |
| 2026-05-05 21:45 | 52.01500 | 13.25029 | 24346 ft | 427 kts | 64° |
| 2026-05-05 21:45 | 52.02853 | 13.29332 | 24739 ft | 430 kts | 64° |
| 2026-05-05 21:45 | 52.04215 | 13.33673 | 25129 ft | 433 kts | 64° |
| 2026-05-05 21:45 | 52.05583 | 13.38042 | 25508 ft | 436 kts | 65° |
| 2026-05-05 21:46 | 52.06962 | 13.42452 | 25883 ft | 439 kts | 65° |
| 2026-05-05 21:46 | 52.08345 | 13.46887 | 26247 ft | 441 kts | 65° |
| 2026-05-05 21:46 | 52.09736 | 13.51353 | 26611 ft | 444 kts | 65° |
| 2026-05-05 21:46 | 52.11133 | 13.55846 | 26973 ft | 447 kts | 65° |
| 2026-05-05 21:47 | 52.12541 | 13.60382 | 27309 ft | 450 kts | 65° |
| 2026-05-05 21:47 | 52.13955 | 13.64949 | 27645 ft | 453 kts | 65° |
| 2026-05-05 21:47 | 52.15376 | 13.69546 | 27981 ft | 456 kts | 65° |
| 2026-05-05 21:47 | 52.16803 | 13.74171 | 28316 ft | 458 kts | 65° |
| 2026-05-05 21:48 | 52.18234 | 13.78816 | 28641 ft | 461 kts | 65° |
| 2026-05-05 21:48 | 52.19674 | 13.83501 | 28951 ft | 463 kts | 65° |
| 2026-05-05 21:48 | 52.21118 | 13.88209 | 29299 ft | 465 kts | 65° |
| 2026-05-05 21:48 | 52.22543 | 13.92860 | 29743 ft | 464 kts | 65° |
| 2026-05-05 21:49 | 52.23998 | 13.97621 | 30182 ft | 462 kts | 65° |
| 2026-05-05 21:49 | 52.25431 | 14.02319 | 30561 ft | 462 kts | 65° |
| 2026-05-05 21:49 | 52.26842 | 14.06955 | 30897 ft | 462 kts | 65° |
| 2026-05-05 21:49 | 52.28268 | 14.11648 | 31257 ft | 462 kts | 65° |
| 2026-05-05 21:50 | 52.29692 | 14.16346 | 31632 ft | 461 kts | 65° |
| 2026-05-05 21:50 | 52.31111 | 14.21036 | 32003 ft | 460 kts | 65° |
| 2026-05-05 21:50 | 52.32527 | 14.25724 | 32349 ft | 460 kts | 65° |
| 2026-05-05 21:50 | 52.33946 | 14.30431 | 32686 ft | 461 kts | 65° |
| 2026-05-05 21:51 | 52.35361 | 14.35134 | 32839 ft | 465 kts | 65° |
| 2026-05-05 21:51 | 52.36796 | 14.39919 | 32830 ft | 471 kts | 65° |
| 2026-05-05 21:51 | 52.39710 | 14.49657 | 32837 ft | 482 kts | 65° |
| 2026-05-05 21:52 | 52.44186 | 14.64687 | 32839 ft | 496 kts | 65° |
| 2026-05-05 21:53 | 52.47216 | 14.74909 | 32817 ft | 498 kts | 65° |
| 2026-05-05 21:53 | 52.50233 | 14.85135 | 32820 ft | 498 kts | 65° |
| 2026-05-05 21:54 | 52.53246 | 14.95392 | 32824 ft | 498 kts | 65° |
| 2026-05-05 21:54 | 52.56242 | 15.05637 | 32829 ft | 498 kts | 65° |
| 2026-05-05 21:55 | 52.59230 | 15.15902 | 32835 ft | 498 kts | 65° |
| 2026-05-05 21:55 | 52.62210 | 15.26180 | 32836 ft | 498 kts | 65° |
| 2026-05-05 21:56 | 52.65181 | 15.36472 | 32835 ft | 498 kts | 65° |
| 2026-05-05 21:56 | 52.68140 | 15.46769 | 32838 ft | 497 kts | 65° |
| 2026-05-05 21:57 | 52.71093 | 15.57090 | 32837 ft | 498 kts | 65° |
| 2026-05-05 21:57 | 52.74037 | 15.67423 | 32841 ft | 498 kts | 65° |
| 2026-05-05 21:58 | 52.76969 | 15.77764 | 32838 ft | 498 kts | 65° |
| 2026-05-05 21:58 | 52.79899 | 15.88137 | 32839 ft | 498 kts | 65° |
| 2026-05-05 21:59 | 52.82819 | 15.98524 | 32845 ft | 498 kts | 65° |
| 2026-05-05 21:59 | 52.85731 | 16.08932 | 32845 ft | 499 kts | 65° |
| 2026-05-05 22:00 | 52.88634 | 16.19352 | 32846 ft | 499 kts | 65° |
| 2026-05-05 22:00 | 52.91531 | 16.29795 | 32848 ft | 499 kts | 65° |
| 2026-05-05 22:01 | 52.94401 | 16.40190 | 32852 ft | 499 kts | 65° |
| 2026-05-05 22:01 | 52.97282 | 16.50671 | 32851 ft | 499 kts | 65° |
| 2026-05-05 22:02 | 53.00155 | 16.61170 | 32854 ft | 499 kts | 65° |
| 2026-05-05 22:02 | 53.03019 | 16.71686 | 32859 ft | 500 kts | 65° |
| 2026-05-05 22:03 | 53.05872 | 16.82213 | 32868 ft | 500 kts | 65° |
| 2026-05-05 22:03 | 53.08717 | 16.92757 | 32860 ft | 500 kts | 65° |
| 2026-05-05 22:04 | 53.11553 | 17.03306 | 32860 ft | 500 kts | 65° |
| 2026-05-05 22:04 | 53.14224 | 17.13984 | 32863 ft | 499 kts | 68° |
| 2026-05-05 22:05 | 53.16763 | 17.24758 | 32865 ft | 499 kts | 68° |
| 2026-05-05 22:05 | 53.19303 | 17.35530 | 32868 ft | 500 kts | 68° |
| 2026-05-05 22:06 | 53.21859 | 17.46303 | 32868 ft | 500 kts | 68° |
| 2026-05-05 22:06 | 53.24415 | 17.57090 | 32871 ft | 500 kts | 68° |
| 2026-05-05 22:07 | 53.26960 | 17.67889 | 32868 ft | 500 kts | 68° |
| 2026-05-05 22:07 | 53.29493 | 17.78702 | 32868 ft | 500 kts | 68° |
| 2026-05-05 22:08 | 53.32019 | 17.89538 | 32868 ft | 500 kts | 68° |
| 2026-05-05 22:08 | 53.34533 | 18.00383 | 32873 ft | 500 kts | 68° |
| 2026-05-05 22:09 | 53.37041 | 18.11246 | 32873 ft | 500 kts | 68° |
| 2026-05-05 22:09 | 53.39534 | 18.22123 | 32879 ft | 500 kts | 68° |
| 2026-05-05 22:10 | 53.42007 | 18.33024 | 32884 ft | 500 kts | 68° |
| 2026-05-05 22:10 | 53.44471 | 18.43942 | 32886 ft | 501 kts | 68° |
| 2026-05-05 22:11 | 53.46927 | 18.54875 | 32883 ft | 501 kts | 68° |
| 2026-05-05 22:11 | 53.49375 | 18.65828 | 32882 ft | 501 kts | 68° |
| 2026-05-05 22:12 | 53.51814 | 18.76793 | 32883 ft | 501 kts | 68° |
| 2026-05-05 22:12 | 53.54158 | 18.87828 | 32884 ft | 502 kts | 70° |
| 2026-05-05 22:13 | 53.56383 | 18.98864 | 32875 ft | 502 kts | 70° |
| 2026-05-05 22:13 | 53.58618 | 19.09982 | 32881 ft | 502 kts | 70° |
| 2026-05-05 22:14 | 53.60876 | 19.21183 | 32878 ft | 502 kts | 70° |
| 2026-05-05 22:14 | 53.63098 | 19.32238 | 32877 ft | 502 kts | 70° |
| 2026-05-05 22:15 | 53.65324 | 19.43383 | 32882 ft | 502 kts | 70° |
| 2026-05-05 22:15 | 53.67538 | 19.54535 | 32880 ft | 501 kts | 70° |
| 2026-05-05 22:16 | 53.69742 | 19.65704 | 32882 ft | 501 kts | 70° |
| 2026-05-05 22:16 | 53.71934 | 19.76866 | 32886 ft | 501 kts | 70° |
| 2026-05-05 22:17 | 53.74111 | 19.88059 | 32886 ft | 501 kts | 70° |
| 2026-05-05 22:17 | 53.75904 | 19.97350 | 32884 ft | 501 kts | 70° |
| 2026-05-05 22:18 | 53.78058 | 20.08576 | 32883 ft | 501 kts | 71° |
| 2026-05-05 22:18 | 53.80202 | 20.19807 | 32889 ft | 502 kts | 71° |
| 2026-05-05 22:19 | 53.82335 | 20.31048 | 32888 ft | 502 kts | 71° |
| 2026-05-05 22:19 | 53.84457 | 20.42294 | 32891 ft | 502 kts | 71° |
| 2026-05-05 22:20 | 53.86573 | 20.53572 | 32886 ft | 502 kts | 71° |
| 2026-05-05 22:20 | 53.88675 | 20.64865 | 32886 ft | 502 kts | 71° |
| 2026-05-05 22:21 | 53.90765 | 20.76166 | 32882 ft | 503 kts | 71° |
| 2026-05-05 22:21 | 53.92846 | 20.87493 | 32889 ft | 503 kts | 71° |
| 2026-05-05 22:22 | 53.94918 | 20.98836 | 32889 ft | 504 kts | 71° |
| 2026-05-05 22:22 | 53.96981 | 21.10203 | 32892 ft | 504 kts | 71° |
| 2026-05-05 22:23 | 53.99042 | 21.21593 | 32906 ft | 504 kts | 71° |
| 2026-05-05 22:23 | 54.01094 | 21.32989 | 32895 ft | 505 kts | 71° |
| 2026-05-05 22:24 | 54.03118 | 21.44242 | 32869 ft | 489 kts | 71° |
| 2026-05-05 22:24 | 54.04092 | 21.49681 | 32873 ft | 473 kts | 71° |
| 2026-05-05 22:24 | 54.05034 | 21.54953 | 32869 ft | 459 kts | 71° |
| 2026-05-05 22:25 | 54.06850 | 21.65158 | 32518 ft | 449 kts | 71° |
| 2026-05-05 22:25 | 54.07769 | 21.70325 | 32166 ft | 463 kts | 71° |
| 2026-05-05 22:25 | 54.08716 | 21.75669 | 31807 ft | 480 kts | 72° |
| 2026-05-05 22:25 | 54.09691 | 21.81193 | 31442 ft | 492 kts | 72° |
| 2026-05-05 22:26 | 54.10675 | 21.86797 | 31055 ft | 493 kts | 72° |
| 2026-05-05 22:26 | 54.11649 | 21.92372 | 30674 ft | 489 kts | 72° |
| 2026-05-05 22:26 | 54.12615 | 21.97919 | 30302 ft | 486 kts | 72° |
| 2026-05-05 22:26 | 54.13571 | 22.03421 | 29926 ft | 483 kts | 73° |
| 2026-05-05 22:27 | 54.14520 | 22.08899 | 29502 ft | 480 kts | 73° |
| 2026-05-05 22:27 | 54.15462 | 22.14342 | 29072 ft | 477 kts | 73° |
| 2026-05-05 22:27 | 54.16397 | 22.19760 | 28664 ft | 474 kts | 73° |
| 2026-05-05 22:27 | 54.17320 | 22.25138 | 28257 ft | 471 kts | 73° |
| 2026-05-05 22:28 | 54.18233 | 22.30489 | 27853 ft | 468 kts | 73° |
| 2026-05-05 22:28 | 54.19138 | 22.35812 | 27447 ft | 465 kts | 73° |
| 2026-05-05 22:28 | 54.20035 | 22.41105 | 27052 ft | 463 kts | 73° |
| 2026-05-05 22:28 | 54.20924 | 22.46368 | 26672 ft | 460 kts | 73° |
| 2026-05-05 22:29 | 54.21806 | 22.51599 | 26290 ft | 457 kts | 73° |
| 2026-05-05 22:29 | 54.22681 | 22.56806 | 25915 ft | 454 kts | 73° |
| 2026-05-05 22:29 | 54.23548 | 22.61983 | 25545 ft | 452 kts | 73° |
| 2026-05-05 22:29 | 54.24409 | 22.67138 | 25177 ft | 449 kts | 73° |
| 2026-05-05 22:30 | 54.25262 | 22.72257 | 24818 ft | 447 kts | 73° |
| 2026-05-05 22:30 | 54.26109 | 22.77358 | 24460 ft | 445 kts | 74° |
| 2026-05-05 22:30 | 54.26950 | 22.82439 | 24104 ft | 442 kts | 74° |
| 2026-05-05 22:30 | 54.27782 | 22.87482 | 23756 ft | 440 kts | 74° |
| 2026-05-05 22:31 | 54.28612 | 22.92517 | 23399 ft | 438 kts | 74° |
| 2026-05-05 22:31 | 54.29432 | 22.97509 | 22994 ft | 436 kts | 74° |
| 2026-05-05 22:31 | 54.30467 | 23.02368 | 22564 ft | 433 kts | 62° |
| 2026-05-05 22:31 | 54.32057 | 23.06688 | 22181 ft | 427 kts | 50° |
| 2026-05-05 22:32 | 54.34072 | 23.10369 | 21786 ft | 421 kts | 36° |
| 2026-05-05 22:32 | 54.36383 | 23.13394 | 21414 ft | 416 kts | 33° |
| 2026-05-05 22:32 | 54.38719 | 23.16308 | 21023 ft | 414 kts | 32° |
| 2026-05-05 22:32 | 54.40938 | 23.19451 | 20620 ft | 416 kts | 46° |
| 2026-05-05 22:33 | 54.42535 | 23.23565 | 20247 ft | 416 kts | 65° |
| 2026-05-05 22:33 | 54.43368 | 23.28305 | 19901 ft | 413 kts | 79° |
| 2026-05-05 22:33 | 54.43858 | 23.33151 | 19543 ft | 411 kts | 82° |
| 2026-05-05 22:33 | 54.44283 | 23.37992 | 19182 ft | 409 kts | 82° |
| 2026-05-05 22:34 | 54.44690 | 23.42814 | 18813 ft | 407 kts | 83° |
| 2026-05-05 22:34 | 54.45091 | 23.47607 | 18453 ft | 404 kts | 83° |
| 2026-05-05 22:34 | 54.45487 | 23.52380 | 18102 ft | 402 kts | 83° |
| 2026-05-05 22:34 | 54.45870 | 23.57126 | 17700 ft | 399 kts | 85° |
| 2026-05-05 22:35 | 54.45981 | 23.61866 | 17303 ft | 396 kts | 91° |
| 2026-05-05 22:35 | 54.45962 | 23.66587 | 16908 ft | 394 kts | 92° |
| 2026-05-05 22:35 | 54.45916 | 23.71278 | 16519 ft | 391 kts | 92° |
| 2026-05-05 22:35 | 54.45865 | 23.75943 | 16137 ft | 389 kts | 93° |
| 2026-05-05 22:36 | 54.45813 | 23.80512 | 15763 ft | 387 kts | 93° |
| 2026-05-05 22:36 | 54.45759 | 23.85118 | 15388 ft | 385 kts | 93° |
| 2026-05-05 22:36 | 54.45705 | 23.89704 | 15022 ft | 382 kts | 93° |
| 2026-05-05 22:36 | 54.45651 | 23.94317 | 14643 ft | 381 kts | 93° |
| 2026-05-05 22:37 | 54.45597 | 23.98852 | 14287 ft | 379 kts | 93° |
| 2026-05-05 22:37 | 54.45544 | 24.03319 | 13927 ft | 378 kts | 93° |
| 2026-05-05 22:37 | 54.45492 | 24.07826 | 13563 ft | 377 kts | 93° |
| 2026-05-05 22:37 | 54.45439 | 24.12382 | 13160 ft | 376 kts | 93° |
| 2026-05-05 22:38 | 54.45391 | 24.16796 | 12763 ft | 373 kts | 93° |
| 2026-05-05 22:38 | 54.45347 | 24.21228 | 12375 ft | 369 kts | 93° |
| 2026-05-05 22:38 | 54.45308 | 24.25611 | 11990 ft | 365 kts | 93° |
| 2026-05-05 22:38 | 54.45275 | 24.29953 | 11606 ft | 361 kts | 93° |
| 2026-05-05 22:39 | 54.45246 | 24.34261 | 11155 ft | 360 kts | 93° |
| 2026-05-05 22:39 | 54.45222 | 24.38561 | 10686 ft | 360 kts | 93° |
| 2026-05-05 22:39 | 54.45204 | 24.42857 | 10229 ft | 359 kts | 93° |
| 2026-05-05 22:39 | 54.45192 | 24.47145 | 9776 ft | 358 kts | 93° |
| 2026-05-05 22:40 | 54.45187 | 24.51426 | 9278 ft | 357 kts | 93° |
| 2026-05-05 22:40 | 54.45182 | 24.55687 | 8778 ft | 356 kts | 93° |
| 2026-05-05 22:40 | 54.45175 | 24.59935 | 8301 ft | 355 kts | 93° |
| 2026-05-05 22:40 | 54.45166 | 24.64165 | 7817 ft | 353 kts | 93° |
| 2026-05-05 22:41 | 54.45154 | 24.68371 | 7354 ft | 351 kts | 93° |
| 2026-05-05 22:41 | 54.45140 | 24.72560 | 6888 ft | 350 kts | 93° |
| 2026-05-05 22:41 | 54.45125 | 24.76719 | 6427 ft | 348 kts | 93° |
| 2026-05-05 22:41 | 54.45107 | 24.80866 | 5953 ft | 346 kts | 93° |
| 2026-05-05 22:42 | 54.45082 | 24.84983 | 5472 ft | 343 kts | 93° |
| 2026-05-05 22:42 | 54.45046 | 24.89034 | 5082 ft | 332 kts | 93° |
| 2026-05-05 22:42 | 54.45003 | 24.92921 | 4689 ft | 319 kts | 93° |
| 2026-05-05 22:42 | 54.44954 | 24.96654 | 4310 ft | 307 kts | 93° |
| 2026-05-05 22:43 | 54.44895 | 25.00250 | 3927 ft | 296 kts | 93° |
| 2026-05-05 22:43 | 54.44831 | 25.03731 | 3544 ft | 287 kts | 93° |
| 2026-05-05 22:43 | 54.44755 | 25.07115 | 3168 ft | 279 kts | 93° |
| 2026-05-05 22:43 | 54.44658 | 25.10400 | 2794 ft | 271 kts | 92° |
| 2026-05-05 22:44 | 54.44920 | 25.13456 | 2682 ft | 251 kts | 62° |
| 2026-05-05 22:44 | 54.46026 | 25.15546 | 2683 ft | 228 kts | 35° |
| 2026-05-05 22:44 | 54.47312 | 25.16965 | 2675 ft | 213 kts | 29° |
| 2026-05-05 22:44 | 54.48577 | 25.18152 | 2705 ft | 205 kts | 26° |
| 2026-05-05 22:45 | 54.49882 | 25.19170 | 2700 ft | 206 kts | 22° |
| 2026-05-05 22:45 | 54.51186 | 25.20085 | 2679 ft | 199 kts | 21° |
| 2026-05-05 22:45 | 54.52429 | 25.20945 | 2679 ft | 185 kts | 21° |
| 2026-05-05 22:45 | 54.53600 | 25.21758 | 2503 ft | 178 kts | 21° |
| 2026-05-05 22:46 | 54.54729 | 25.22542 | 2280 ft | 172 kts | 21° |
| 2026-05-05 22:46 | 54.55817 | 25.23299 | 2060 ft | 164 kts | 21° |
| 2026-05-05 22:46 | 54.56844 | 25.24013 | 1829 ft | 154 kts | 21° |
| 2026-05-05 22:46 | 54.57792 | 25.24672 | 1644 ft | 143 kts | 21° |
| 2026-05-05 22:47 | 54.58685 | 25.25288 | 1495 ft | 136 kts | 20° |
| 2026-05-05 22:47 | 54.59572 | 25.25913 | 1301 ft | 146 kts | 21° |
| 2026-05-05 22:47 | 54.60538 | 25.26589 | 1010 ft | 148 kts | 20° |
| 2026-05-05 22:47 | 54.61464 | 25.27232 | 832 ft | 144 kts | 19° |
| 2026-05-05 22:48 | 54.62378 | 25.27859 | 665 ft | 139 kts | 18° |
| 2026-05-05 22:48 | 54.63215 | 25.28437 | 606 ft | 116 kts | 21° |
| 2026-05-05 22:48 | 54.63766 | 25.28818 | 635 ft | 55 kts | 21° |
| 2026-05-05 22:48 | 54.64038 | 25.29007 | 644 ft | 37 kts | 22° |
| 2026-05-05 22:49 | 54.64254 | 25.29156 | 653 ft | 30 kts | 21° |
| 2026-05-05 22:49 | 54.64423 | 25.29263 | 656 ft | 13 kts | 14° |
| 2026-05-05 22:49 | 54.64485 | 25.29170 | 659 ft | 13 kts | 297° |
| 2026-05-05 22:49 | 54.64519 | 25.29050 | 658 ft | 5 kts | 289° |
| 2026-05-05 22:50 | 54.64494 | 25.29011 | 656 ft | 5 kts | 197° |
| 2026-05-05 22:50 | 54.64459 | 25.28993 | 656 ft | 5 kts | 196° |
| 2026-05-05 22:50 | 54.64424 | 25.28973 | 656 ft | 6 kts | 203° |
| 2026-05-05 22:50 | 54.64376 | 25.28939 | 654 ft | 10 kts | 202° |
| 2026-05-05 22:51 | 54.64296 | 25.28884 | 652 ft | 15 kts | 201° |
| 2026-05-05 22:51 | 54.64183 | 25.28806 | 649 ft | 20 kts | 202° |
| 2026-05-05 22:51 | 54.64118 | 25.28606 | 643 ft | 21 kts | 269° |
| 2026-05-05 22:51 | 54.64117 | 25.28431 | 639 ft | 13 kts | 269° |
| 2026-05-05 22:52 | 54.64117 | 25.28394 | 639 ft | 2 kts | 269° |
| 2026-05-05 22:52 | 54.64122 | 25.28339 | 640 ft | 7 kts | 303° |
| 2026-05-05 22:52 | 54.64170 | 25.28329 | 638 ft | 7 kts | 353° |
| 2026-05-05 22:52 | 54.64177 | 25.28255 | 637 ft | 7 kts | 252° |
| 2026-05-05 22:53 | 54.64157 | 25.28180 | 639 ft | 7 kts | 223° |
| 2026-05-05 22:53 | 54.64106 | 25.28173 | 639 ft | 9 kts | 168° |
| 2026-05-05 22:53 | 54.64029 | 25.28204 | 637 ft | 14 kts | 167° |
| 2026-05-05 22:53 | 54.64013 | 25.28210 | 639 ft | 2 kts | 166° |
| 2026-05-05 22:54 | 54.63986 | 25.28226 | 631 ft | 7 kts | 149° |
| 2026-05-05 22:54 | 54.63983 | 25.28302 | 634 ft | 5 kts | 76° |
| 2026-05-05 22:54 | 54.63986 | 25.28321 | 638 ft | 0 kts | 76° |